KFTK/FTK METAR and TAF weather

Enter ICAO airport designator
Station Type Date Time Source
KFTK METAR 2018/12/10 11:57 UTC NOAA

KFTK 101157Z 03006KT 10SM SCT100 M05/M08 A3023 RMK SLP248 T10531076 11019 21054 53004 RWY36 $


Station Type Date Time Source
KFTK Decoded METAR 2018/12/10 11:57 UTC NOAA

Fort Knox, KY, United States (KFTK) 37-54N 085-58W 230M
Dec 10, 2018 - 06:57 AM EST / 2018.12.10 1157 UTC
Wind: from the NNE (030 degrees) at 7 MPH (6 KT):0
Visibility: 10 mile(s):0
Sky conditions: partly cloudy
Temperature: 22.5 F (-5.3 C)
Windchill: 14 F (-10 C):1
Dew Point: 18.3 F (-7.6 C)
Relative Humidity: 83%
Pressure (altimeter): 30.23 in. Hg (1023 hPa)
Pressure tendency: 0.01 inches (0.4 hPa) higher than three hours ago
ob: KFTK 101157Z 03006KT 10SM SCT100 M05/M08 A3023 RMK SLP248 T10531076 11019 21054 53004 RWY36
cycle: 12

Station Type Date Time Source
KFTK TAF 2018/12/10 09:15 UTC NOAA

TAF TAF KFTK 100900Z 1009/1115 VRB06KT 9999 SKC QNH3016INS TX03/1021Z TNM05/1012Z


Example: see airport list